Time;durP1;ratioP1;P1;durP2;ratioP2;P2;SDS_P1;SDS_P2;PMS_P1;PMS_P2;Temp;Humidity;BMP_temperature;BMP_pressure;BME280_temperature;BME280_humidity;BME280_pressure;Samples;Min_cycle;Max_cycle;Signal;HPM_P1;HPM_P2
2021/01/10 00:01:09;;;;;;;46.25;24.85;;;;;;;0.44;81.09;100628.05;1701957;81;21455;-48
2021/01/10 00:03:37;;;;;;;43.25;23.02;;;;;;;0.47;81.12;100628.84;1701547;81;21022;-49
2021/01/10 00:06:05;;;;;;;46.75;24.27;;;;;;;0.50;81.17;100631.34;1732624;81;20987;-49
2021/01/10 00:08:33;;;;;;;48.30;25.25;;;;;;;0.51;81.08;100623.92;1756826;81;21130;-49
2021/01/10 00:11:01;;;;;;;43.15;23.65;;;;;;;0.52;80.86;100627.78;1758917;81;21128;-49
2021/01/10 00:13:31;;;;;;;44.83;22.52;;;;;;;0.54;80.76;100632.92;1763731;80;21370;-48
2021/01/10 00:15:58;;;;;;;46.55;24.40;;;;;;;0.53;80.75;100637.27;1764206;80;21149;-49
2021/01/10 00:18:26;;;;;;;46.83;22.98;;;;;;;0.54;80.75;100630.32;1753292;81;21444;-48
2021/01/10 00:20:54;;;;;;;44.98;24.00;;;;;;;0.54;80.71;100630.32;1701907;83;22023;-49
2021/01/10 00:23:22;;;;;;;45.80;24.60;;;;;;;0.51;80.56;100629.12;1732959;80;21456;-49
2021/01/10 00:25:51;;;;;;;51.63;26.15;;;;;;;0.50;80.55;100641.32;1759243;79;21448;-48
2021/01/10 00:28:20;;;;;;;49.48;24.50;;;;;;;0.49;80.51;100639.63;1759013;81;21188;-48
2021/01/10 00:30:47;;;;;;;48.78;25.92;;;;;;;0.49;80.57;100641.36;1758931;81;21156;-48
2021/01/10 00:33:15;;;;;;;48.60;25.12;;;;;;;0.48;80.65;100640.96;1763821;81;21140;-48
2021/01/10 00:35:43;;;;;;;43.73;24.10;;;;;;;0.49;80.60;100647.87;1746255;81;21630;-49
2021/01/10 00:38:10;;;;;;;43.55;24.02;;;;;;;0.49;80.66;100644.83;1734021;81;21283;-48
2021/01/10 00:40:39;;;;;;;50.25;25.55;;;;;;;0.50;80.60;100649.57;1711553;83;21154;-48
2021/01/10 00:43:08;;;;;;;44.70;23.95;;;;;;;0.50;80.55;100644.36;1716412;82;21182;-49
2021/01/10 00:45:36;;;;;;;47.93;24.43;;;;;;;0.51;80.51;100646.92;1753325;81;21129;-49
2021/01/10 00:48:05;;;;;;;43.78;24.57;;;;;;;0.53;80.49;100639.88;1759434;81;22046;-48
2021/01/10 00:50:35;;;;;;;44.08;24.07;;;;;;;0.54;80.46;100643.34;1772240;80;21372;-48
2021/01/10 00:53:05;;;;;;;45.12;24.57;;;;;;;0.55;80.34;100643.74;1763614;80;21628;-49
2021/01/10 00:55:34;;;;;;;46.95;22.93;;;;;;;0.54;80.25;100640.27;1753521;81;21117;-49
2021/01/10 00:58:04;;;;;;;41.75;23.07;;;;;;;0.54;80.25;100640.74;1701627;83;21148;-49
2021/01/10 01:00:31;;;;;;;43.65;24.23;;;;;;;0.52;80.24;100634.73;1722462;81;21181;-49
2021/01/10 01:02:59;;;;;;;43.55;23.67;;;;;;;0.52;80.33;100634.73;1701553;83;21208;-48
2021/01/10 01:05:27;;;;;;;47.80;24.50;;;;;;;0.51;80.20;100629.12;1686855;84;21140;-48
2021/01/10 01:07:57;;;;;;;47.17;25.27;;;;;;;0.52;80.08;100626.48;1701478;83;21054;-49
2021/01/10 01:10:29;;;;;;;46.73;25.57;;;;;;;0.51;80.04;100633.03;1716088;83;21184;-48
2021/01/10 01:12:58;;;;;;;49.05;24.92;;;;;;;0.51;80.19;100638.25;1717296;82;21133;-49
2021/01/10 01:15:25;;;;;;;47.98;25.45;;;;;;;0.51;80.21;100644.32;1717218;81;21505;-49
2021/01/10 01:17:53;;;;;;;50.05;26.87;;;;;;;0.54;80.26;100649.86;1675458;83;21176;-48
2021/01/10 01:20:21;;;;;;;48.00;26.10;;;;;;;0.56;80.24;100650.66;1678574;84;21164;-48
2021/01/10 01:22:49;;;;;;;49.55;24.65;;;;;;;0.59;80.20;100656.59;1698273;83;21147;-48
2021/01/10 01:25:18;;;;;;;46.23;23.83;;;;;;;0.62;80.10;100654.77;1717418;81;21133;-49
2021/01/10 01:27:45;;;;;;;51.92;26.17;;;;;;;0.64;80.07;100651.66;1717157;81;21276;-48
2021/01/10 01:30:14;;;;;;;52.98;27.70;;;;;;;0.64;80.05;100651.23;1717329;81;21172;-49
2021/01/10 01:32:42;;;;;;;50.65;25.88;;;;;;;0.66;80.08;100650.72;1717309;81;20999;-49
2021/01/10 01:35:10;;;;;;;49.90;27.35;;;;;;;0.70;79.99;100648.83;1698760;83;21186;-49
2021/01/10 01:37:40;;;;;;;47.08;25.20;;;;;;;0.70;79.73;100650.13;1712902;83;21612;-48
2021/01/10 01:40:09;;;;;;;44.38;24.18;;;;;;;0.71;79.63;100647.48;1712021;83;21259;-49
2021/01/10 01:42:37;;;;;;;48.73;26.12;;;;;;;0.70;79.58;100648.39;1712704;83;21179;-49
2021/01/10 01:45:07;;;;;;;46.60;24.30;;;;;;;0.69;79.52;100649.30;1706021;83;21175;-48
2021/01/10 01:47:34;;;;;;;44.05;23.30;;;;;;;0.68;79.58;100650.20;1708978;83;21540;-48
2021/01/10 01:50:04;;;;;;;45.65;24.57;;;;;;;0.67;79.33;100647.20;1704145;83;22069;-48
2021/01/10 01:52:33;;;;;;;50.12;24.35;;;;;;;0.64;79.32;100648.62;1732830;81;22002;-48
2021/01/10 01:55:04;;;;;;;46.50;23.05;;;;;;;0.64;79.45;100649.06;1753454;81;22064;-49
2021/01/10 01:57:32;;;;;;;43.33;24.20;;;;;;;0.64;79.63;100648.62;1687020;84;21168;-49
2021/01/10 02:00:00;;;;;;;51.63;27.55;;;;;;;0.63;79.46;100645.62;1713465;81;21120;-48
2021/01/10 02:02:30;;;;;;;46.42;24.20;;;;;;;0.62;79.44;100646.96;1748026;81;21146;-48
2021/01/10 02:05:08;;;;;;;44.88;25.20;;;;;;;0.61;79.42;100651.77;1750414;81;21185;-48
2021/01/10 02:07:43;;;;;;;42.58;23.18;;;;;;;0.59;79.37;100651.38;1723224;81;21149;-48
2021/01/10 02:10:25;;;;;;;50.35;26.45;;;;;;;0.65;79.43;100651.63;1848198;76;22810;-48
2021/01/10 02:12:54;;;;;;;48.35;26.70;;;;;;;0.58;79.45;100648.38;1790259;77;21922;-49
2021/01/10 02:15:25;;;;;;;46.37;24.60;;;;;;;0.60;79.56;100653.55;1803781;77;21729;-49
2021/01/10 02:17:54;;;;;;;48.37;26.77;;;;;;;0.59;79.34;100646.17;1822561;77;21524;-47
2021/01/10 02:20:31;;;;;;;41.53;22.50;;;;;;;0.59;79.35;100647.47;1814568;77;21181;-47
2021/01/10 02:23:09;;;;;;;44.13;23.38;;;;;;;0.59;79.37;100654.45;1791819;77;20954;-48
2021/01/10 02:25:41;;;;;;;47.83;24.63;;;;;;;0.56;79.34;100655.86;1778635;77;20985;-48
2021/01/10 02:28:09;;;;;;;45.83;24.57;;;;;;;0.54;79.40;100655.06;1776884;79;21339;-48
2021/01/10 02:30:39;;;;;;;48.38;26.00;;;;;;;0.54;79.52;100662.88;1774898;78;22200;-48
2021/01/10 02:33:14;;;;;;;47.40;24.60;;;;;;;0.53;79.54;100656.80;1807398;78;21717;-48
2021/01/10 02:35:42;;;;;;;47.30;23.45;;;;;;;0.56;79.50;100657.16;1801173;79;22130;-49
2021/01/10 02:38:40;;;;;;;47.35;25.12;;;;;;;0.55;79.49;100658.06;1808523;78;21101;-47
2021/01/10 02:41:28;;;;;;;48.68;26.73;;;;;;;0.53;79.57;100656.80;1773322;78;21382;-48
2021/01/10 02:44:16;;;;;;;53.20;26.20;;;;;;;0.52;79.66;100658.18;1780450;78;20989;-49
2021/01/10 02:46:48;;;;;;;49.00;24.77;;;;;;;0.53;79.61;100656.80;1793872;78;21021;-49
2021/01/10 02:49:18;;;;;;;45.25;25.08;;;;;;;0.53;79.70;100660.71;1729355;80;20970;-49
2021/01/10 02:51:49;;;;;;;47.10;25.05;;;;;;;0.55;79.73;100661.51;1781258;78;21113;-49
2021/01/10 02:54:18;;;;;;;47.93;25.00;;;;;;;0.55;79.82;100658.06;1769776;78;21204;-47
2021/01/10 02:57:00;;;;;;;49.93;24.00;;;;;;;0.55;79.78;100656.77;1757752;79;20990;-48
2021/01/10 02:59:30;;;;;;;51.63;26.23;;;;;;;0.53;79.82;100660.71;1792141;78;21105;-49
2021/01/10 03:02:01;;;;;;;50.63;26.02;;;;;;;0.52;79.89;100652.97;1782686;79;21125;-48
2021/01/10 03:04:30;;;;;;;51.75;27.73;;;;;;;0.54;80.06;100661.58;1787901;78;20979;-48
2021/01/10 03:06:59;;;;;;;52.53;28.42;;;;;;;0.54;80.11;100657.20;1775603;78;22223;-49
2021/01/10 03:09:26;;;;;;;56.63;26.33;;;;;;;0.56;80.06;100654.56;1792219;77;21212;-48
2021/01/10 03:11:54;;;;;;;50.15;27.22;;;;;;;0.54;80.02;100659.81;1799580;78;20986;-49
2021/01/10 03:14:23;;;;;;;48.78;25.92;;;;;;;0.56;80.06;100662.38;1804795;78;21693;-49
2021/01/10 03:16:50;;;;;;;54.58;26.82;;;;;;;0.57;80.08;100658.87;1785642;78;21590;-48
2021/01/10 03:19:19;;;;;;;50.92;26.77;;;;;;;0.60;80.33;100658.75;1801340;78;22866;-49
2021/01/10 03:21:46;;;;;;;51.08;27.32;;;;;;;0.64;80.22;100659.04;1791552;78;21112;-48
2021/01/10 03:24:14;;;;;;;48.08;25.57;;;;;;;0.66;80.15;100657.66;1786259;78;21172;-48
2021/01/10 03:26:41;;;;;;;51.45;26.90;;;;;;;0.68;80.12;100661.93;1797053;78;21016;-48
2021/01/10 03:29:09;;;;;;;47.95;25.30;;;;;;;0.68;80.00;100661.93;1776931;79;21126;-48
2021/01/10 03:31:37;;;;;;;54.42;27.77;;;;;;;0.68;79.97;100664.54;1796198;78;21191;-48
2021/01/10 03:34:05;;;;;;;53.38;28.55;;;;;;;0.67;79.96;100667.19;1796673;78;21369;-48
2021/01/10 03:36:32;;;;;;;52.83;26.50;;;;;;;0.66;80.04;100665.48;1779067;78;21605;-48
2021/01/10 03:39:00;;;;;;;56.33;28.98;;;;;;;0.67;80.15;100661.53;1776999;79;22303;-49
2021/01/10 03:41:28;;;;;;;51.88;27.22;;;;;;;0.70;80.11;100665.77;1777183;78;22039;-48
2021/01/10 03:43:55;;;;;;;51.95;28.32;;;;;;;0.71;80.11;100664.42;1791735;78;22205;-50
2021/01/10 03:46:23;;;;;;;53.38;28.30;;;;;;;0.72;80.12;100658.31;1791832;78;21009;-48
2021/01/10 03:48:51;;;;;;;51.48;26.82;;;;;;;0.73;80.21;100662.62;1758602;78;20987;-49
2021/01/10 03:51:19;;;;;;;54.20;28.07;;;;;;;0.76;80.23;100656.42;1782713;78;21210;-49
2021/01/10 03:53:46;;;;;;;49.83;26.27;;;;;;;0.77;80.18;100665.11;1800137;78;22009;-49
2021/01/10 03:56:14;;;;;;;54.73;28.10;;;;;;;0.78;80.10;100661.13;1791124;78;21989;-49
2021/01/10 03:58:42;;;;;;;50.33;27.55;;;;;;;0.78;80.12;100662.43;1786261;78;21020;-49
2021/01/10 04:01:09;;;;;;;51.92;28.02;;;;;;;0.81;80.18;100662.78;1794480;78;22080;-49
2021/01/10 04:03:37;;;;;;;55.60;29.87;;;;;;;0.81;80.07;100671.44;1798818;78;21002;-49
2021/01/10 04:06:05;;;;;;;52.95;26.55;;;;;;;0.81;80.10;100665.39;1777135;78;22152;-48
2021/01/10 04:08:33;;;;;;;55.88;28.50;;;;;;;0.84;80.11;100666.11;1781715;78;21225;-49
2021/01/10 04:11:01;;;;;;;54.77;27.67;;;;;;;0.85;80.00;100673.02;1771766;79;21132;-49
2021/01/10 04:13:28;;;;;;;51.10;27.22;;;;;;;0.88;80.07;100675.98;1781108;79;21167;-48
2021/01/10 04:15:56;;;;;;;54.10;27.70;;;;;;;0.91;80.02;100671.97;1778335;79;21952;-48
2021/01/10 04:18:24;;;;;;;51.90;26.85;;;;;;;0.90;79.85;100672.88;1804766;79;21112;-49
2021/01/10 04:20:51;;;;;;;51.75;26.82;;;;;;;0.90;79.93;100669.40;1803200;79;22652;-49
2021/01/10 04:23:19;;;;;;;54.75;27.37;;;;;;;0.89;79.97;100671.17;1764972;79;20983;-49
2021/01/10 04:25:49;;;;;;;54.03;26.80;;;;;;;0.91;80.06;100678.92;1798976;79;21137;-49
2021/01/10 04:28:17;;;;;;;51.18;27.80;;;;;;;0.90;79.91;100676.78;1802861;79;20987;-48
2021/01/10 04:30:45;;;;;;;49.27;24.95;;;;;;;0.93;80.11;100676.67;1809243;79;20979;-48
2021/01/10 04:33:13;;;;;;;50.52;25.27;;;;;;;0.97;80.00;100687.38;1800903;79;21986;-48
2021/01/10 04:35:41;;;;;;;51.60;26.93;;;;;;;0.97;79.70;100680.86;1805159;79;21157;-49
2021/01/10 04:38:08;;;;;;;53.02;27.15;;;;;;;0.96;79.71;100686.11;1770939;79;20984;-49
2021/01/10 04:40:36;;;;;;;54.45;27.65;;;;;;;0.96;79.64;100692.20;1804361;79;21117;-49
2021/01/10 04:43:04;;;;;;;45.85;24.20;;;;;;;0.98;79.65;100692.98;1743326;79;22096;-48
2021/01/10 04:45:32;;;;;;;49.65;25.35;;;;;;;1.00;79.70;100696.39;1786246;79;21428;-49
2021/01/10 04:48:00;;;;;;;50.03;26.40;;;;;;;1.00;79.58;100697.69;1757866;79;21929;-49
2021/01/10 04:50:27;;;;;;;51.10;26.30;;;;;;;1.01;79.63;100701.13;1768170;79;21104;-50
2021/01/10 04:52:55;;;;;;;51.95;26.12;;;;;;;1.01;79.62;100705.04;1718980;79;21109;-47
2021/01/10 04:55:24;;;;;;;45.85;24.63;;;;;;;1.03;79.62;100717.56;1785401;79;21113;-48
2021/01/10 04:57:57;;;;;;;48.50;24.63;;;;;;;1.02;79.43;100712.82;1803834;79;22040;-48
2021/01/10 05:00:25;;;;;;;50.92;26.37;;;;;;;1.01;79.42;100705.04;1776428;79;21186;-48
2021/01/10 05:02:54;;;;;;;49.10;26.17;;;;;;;0.99;79.42;100716.84;1790746;79;22187;-49
2021/01/10 05:05:23;;;;;;;49.23;24.47;;;;;;;0.96;79.42;100709.14;1793314;79;21115;-48
2021/01/10 05:07:51;;;;;;;54.80;27.82;;;;;;;0.94;79.49;100716.16;1800676;79;21960;-48
2021/01/10 05:10:19;;;;;;;48.68;25.62;;;;;;;0.93;79.45;100718.81;1805831;78;22465;-49
2021/01/10 05:12:47;;;;;;;46.35;24.15;;;;;;;0.92;79.48;100725.80;1797542;78;21010;-49
2021/01/10 05:15:14;;;;;;;50.00;27.10;;;;;;;0.91;79.50;100721.92;1800002;78;20993;-48
2021/01/10 05:17:58;;;;;;;45.80;23.90;;;;;;;0.93;79.76;100727.93;1801714;78;21117;-48
2021/01/10 05:20:28;;;;;;;52.40;26.02;;;;;;;0.94;79.64;100727.89;1804213;78;20955;-48
2021/01/10 05:23:00;;;;;;;48.02;25.40;;;;;;;0.92;79.65;100734.92;1799381;78;21747;-49
2021/01/10 05:25:29;;;;;;;51.55;25.80;;;;;;;0.91;79.63;100735.83;1803951;78;22255;-49
2021/01/10 05:27:58;;;;;;;49.03;25.00;;;;;;;0.91;79.59;100740.17;1802041;78;20999;-49
2021/01/10 05:30:31;;;;;;;50.58;26.87;;;;;;;0.92;79.68;100739.27;1774156;78;21627;-49
2021/01/10 05:33:06;;;;;;;51.15;26.45;;;;;;;0.91;79.65;100748.86;1793817;78;22142;-48
2021/01/10 05:35:56;;;;;;;48.13;24.18;;;;;;;0.90;79.76;100745.85;1804201;78;21151;-48
2021/01/10 05:38:33;;;;;;;50.88;26.45;;;;;;;0.91;79.74;100743.64;1799212;78;21172;-48
2021/01/10 05:41:08;;;;;;;50.45;26.60;;;;;;;0.90;79.68;100751.50;1804236;78;22115;-49
2021/01/10 05:43:36;;;;;;;48.33;25.37;;;;;;;0.91;79.68;100755.81;1800339;78;21759;-49
2021/01/10 05:46:17;;;;;;;47.40;24.90;;;;;;;0.94;79.73;100756.56;1784261;78;22099;-49
2021/01/10 05:48:51;;;;;;;47.93;25.20;;;;;;;1.00;79.71;100753.73;1869524;76;22687;-48
2021/01/10 05:51:20;;;;;;;49.18;25.72;;;;;;;0.96;79.62;100760.41;1814620;77;21065;-49
2021/01/10 05:53:49;;;;;;;48.92;25.97;;;;;;;0.94;79.62;100756.56;1816745;77;21667;-48
2021/01/10 05:56:17;;;;;;;48.10;25.25;;;;;;;0.93;79.58;100763.13;1842786;77;21063;-49
2021/01/10 05:58:45;;;;;;;49.83;24.85;;;;;;;0.94;79.66;100762.22;1839921;77;21484;-49
2021/01/10 06:01:13;;;;;;;53.20;25.70;;;;;;;0.96;79.70;100765.62;1780003;77;22303;-49
2021/01/10 06:03:41;;;;;;;43.35;23.87;;;;;;;0.94;79.68;100765.69;1831379;77;20979;-48
2021/01/10 06:06:09;;;;;;;48.35;24.98;;;;;;;0.96;79.75;100770.39;1764115;80;21195;-49
2021/01/10 06:08:39;;;;;;;55.12;25.05;;;;;;;0.95;79.65;100767.39;1768242;80;21030;-48
2021/01/10 06:11:26;;;;;;;47.17;24.70;;;;;;;0.95;79.57;100774.34;1797933;78;20983;-49
2021/01/10 06:14:00;;;;;;;52.65;25.00;;;;;;;0.95;79.54;100776.95;1757046;80;21033;-49
2021/01/10 06:16:31;;;;;;;50.50;26.05;;;;;;;0.95;79.56;100781.73;1795608;78;21186;-48
2021/01/10 06:19:02;;;;;;;48.20;25.27;;;;;;;0.95;79.60;100779.12;1790444;78;21610;-49
2021/01/10 06:21:31;;;;;;;50.83;25.27;;;;;;;0.96;79.76;100784.73;1781870;78;21045;-49
2021/01/10 06:24:00;;;;;;;56.45;28.40;;;;;;;0.98;79.80;100784.22;1788607;78;20997;-49
2021/01/10 06:26:30;;;;;;;58.68;27.62;;;;;;;0.98;79.84;100789.44;1803114;78;21722;-49
2021/01/10 06:29:03;;;;;;;48.28;24.35;;;;;;;1.01;79.77;100793.24;1756994;80;21132;-49
2021/01/10 06:31:36;;;;;;;49.45;25.43;;;;;;;1.03;79.74;100799.25;1803502;78;21210;-47
2021/01/10 06:34:09;;;;;;;53.55;27.22;;;;;;;1.02;79.82;100802.77;1788763;78;21143;-48
2021/01/10 06:36:46;;;;;;;45.92;24.25;;;;;;;1.05;79.83;100804.39;1755025;80;21055;-48
2021/01/10 06:39:20;;;;;;;49.85;25.20;;;;;;;1.06;79.70;100807.40;1746639;80;20960;-49
2021/01/10 06:42:05;;;;;;;48.73;25.43;;;;;;;1.06;79.58;100809.17;1752479;80;20975;-49
2021/01/10 06:44:36;;;;;;;52.75;25.90;;;;;;;1.05;79.51;100806.17;1782340;78;21370;-49
2021/01/10 06:47:04;;;;;;;48.48;25.77;;;;;;;1.02;79.59;100806.67;1771038;80;21026;-48
2021/01/10 06:49:32;;;;;;;51.23;26.45;;;;;;;1.02;79.72;100813.63;1757223;80;21590;-48
2021/01/10 06:52:03;;;;;;;48.80;26.23;;;;;;;1.01;79.83;100810.19;1749536;80;21164;-49
2021/01/10 06:54:35;;;;;;;48.85;24.85;;;;;;;0.99;79.81;100815.04;1750015;80;21629;-48
2021/01/10 06:57:03;;;;;;;49.88;27.17;;;;;;;0.97;79.89;100820.76;1743891;80;21531;-48
2021/01/10 06:59:31;;;;;;;47.85;25.20;;;;;;;0.95;79.91;100823.44;1760347;80;21986;-49
2021/01/10 07:01:59;;;;;;;50.28;26.02;;;;;;;0.95;80.05;100828.64;1711361;80;21149;-48
2021/01/10 07:04:39;;;;;;;53.02;27.00;;;;;;;0.97;80.09;100833.36;1764687;80;20999;-49
2021/01/10 07:07:06;;;;;;;53.25;26.77;;;;;;;0.98;80.12;100836.36;1785240;80;22179;-48
2021/01/10 07:09:53;;;;;;;55.80;28.05;;;;;;;1.00;80.08;100841.51;1769224;80;20959;-48
2021/01/10 07:12:21;;;;;;;54.53;27.58;;;;;;;1.00;80.04;100842.38;1763083;80;20944;-49
2021/01/10 07:14:50;;;;;;;53.15;26.20;;;;;;;1.00;79.93;100841.51;1763117;80;21030;-49
2021/01/10 07:17:18;;;;;;;52.10;27.10;;;;;;;0.99;79.97;100838.06;1762061;80;21546;-49
2021/01/10 07:19:48;;;;;;;53.13;26.17;;;;;;;1.02;80.01;100848.38;1738012;81;21132;-49
2021/01/10 07:22:31;;;;;;;55.03;27.98;;;;;;;1.04;80.10;100849.62;1774688;80;21914;-48
2021/01/10 07:25:21;;;;;;;52.43;25.72;;;;;;;1.06;79.97;100853.02;1747228;80;21343;-48
2021/01/10 07:27:49;;;;;;;52.05;25.17;;;;;;;1.06;79.86;100857.41;1772615;80;21000;-49
2021/01/10 07:30:22;;;;;;;42.60;23.60;;;;;;;1.03;79.75;100857.04;1737387;80;21133;-48
2021/01/10 07:32:50;;;;;;;49.80;26.33;;;;;;;1.03;79.76;100865.73;1769718;80;20987;-49
2021/01/10 07:35:18;;;;;;;51.37;27.40;;;;;;;0.99;79.74;100866.73;1784487;79;22808;-49
2021/01/10 07:37:46;;;;;;;45.60;24.07;;;;;;;1.00;80.05;100869.75;1775595;80;21034;-49
2021/01/10 07:40:23;;;;;;;46.00;24.00;;;;;;;1.02;80.05;100870.98;1742490;81;21007;-49
2021/01/10 07:43:02;;;;;;;51.23;25.62;;;;;;;1.03;79.92;100874.86;1769536;80;21120;-48
2021/01/10 07:45:39;;;;;;;49.33;25.43;;;;;;;1.02;79.90;100873.59;1743822;81;22022;-48
2021/01/10 07:48:08;;;;;;;51.10;26.75;;;;;;;1.02;79.88;100868.38;1775134;78;21532;-48
2021/01/10 07:50:36;;;;;;;58.42;27.95;;;;;;;1.03;79.93;100868.77;1734644;80;21158;-48
2021/01/10 07:53:04;;;;;;;55.65;27.80;;;;;;;1.07;80.16;100875.59;1743779;80;22071;-48
2021/01/10 07:55:32;;;;;;;52.25;27.90;;;;;;;1.14;80.44;100864.47;1768341;79;21145;-49
2021/01/10 07:58:08;;;;;;;59.25;27.58;;;;;;;1.22;80.35;100870.27;1771112;80;22158;-49
2021/01/10 08:00:50;;;;;;;50.90;25.95;;;;;;;1.28;79.88;100870.06;1847216;76;22502;-49
2021/01/10 08:03:25;;;;;;;52.55;28.98;;;;;;;1.23;79.59;100873.28;1807124;77;21188;-48
2021/01/10 08:06:05;;;;;;;54.95;27.73;;;;;;;1.21;79.67;100876.39;1808551;77;21485;-49
2021/01/10 08:08:43;;;;;;;47.88;25.23;;;;;;;1.24;79.83;100872.84;1812671;77;21006;-49
2021/01/10 08:11:11;;;;;;;53.52;26.80;;;;;;;1.28;79.76;100879.19;1809718;77;21321;-48
2021/01/10 08:13:44;;;;;;;60.43;30.45;;;;;;;1.30;79.72;100878.67;1780867;77;22139;-49
2021/01/10 08:16:28;;;;;;;58.90;28.57;;;;;;;1.31;79.54;100873.02;1806040;77;20979;-49
2021/01/10 08:19:06;;;;;;;51.35;27.50;;;;;;;1.34;79.72;100884.66;1809195;77;21232;-48
2021/01/10 08:21:35;;;;;;;48.80;25.60;;;;;;;1.33;79.36;100879.88;1823463;77;21168;-48
2021/01/10 08:24:06;;;;;;;53.70;25.62;;;;;;;1.30;79.26;100883.89;1818300;77;21054;-48
2021/01/10 08:26:39;;;;;;;49.10;26.52;;;;;;;1.32;79.38;100882.08;1794641;78;21536;-48
2021/01/10 08:29:07;;;;;;;51.98;26.25;;;;;;;1.37;79.72;100883.24;1809348;78;21105;-49
2021/01/10 08:31:37;;;;;;;50.05;25.92;;;;;;;1.44;79.65;100882.12;1809268;78;22875;-47
2021/01/10 08:34:09;;;;;;;44.05;23.92;;;;;;;1.50;79.63;100884.94;1809102;78;20999;-48
2021/01/10 08:36:37;;;;;;;49.77;25.77;;;;;;;1.56;79.48;100882.11;1808620;78;21620;-49
2021/01/10 08:39:09;;;;;;;47.83;24.25;;;;;;;1.58;79.22;100884.68;1809392;78;20909;-49
2021/01/10 08:41:43;;;;;;;48.92;23.75;;;;;;;1.63;79.34;100882.72;1809355;77;20944;-49
2021/01/10 08:44:13;;;;;;;45.12;23.25;;;;;;;1.70;79.28;100888.58;1809342;78;21368;-49
2021/01/10 08:46:51;;;;;;;46.02;25.55;;;;;;;1.75;78.99;100884.05;1809241;78;21121;-49
2021/01/10 08:49:25;;;;;;;48.33;24.30;;;;;;;1.76;78.84;100886.58;1809584;78;22069;-49
2021/01/10 08:51:53;;;;;;;52.85;26.80;;;;;;;1.79;78.42;100889.98;1786864;78;21698;-49
2021/01/10 08:54:23;;;;;;;48.38;24.85;;;;;;;1.81;78.44;100888.17;1792019;78;21095;-50
2021/01/10 08:56:54;;;;;;;44.90;22.48;;;;;;;1.83;78.30;100885.91;1800506;78;21445;-48
2021/01/10 08:59:23;;;;;;;45.52;22.98;;;;;;;1.84;77.97;100878.48;1782015;77;21149;-48
2021/01/10 09:01:51;;;;;;;45.52;23.15;;;;;;;1.83;77.83;100888.97;1784665;78;21562;-49
2021/01/10 09:04:19;;;;;;;45.28;24.63;;;;;;;1.84;77.88;100885.45;1793606;77;20978;-49
2021/01/10 09:07:04;;;;;;;43.70;22.70;;;;;;;1.87;77.75;100882.72;1792373;77;21113;-49
2021/01/10 09:09:46;;;;;;;41.85;23.20;;;;;;;1.90;77.90;100878.69;1781522;77;21992;-49
2021/01/10 09:12:43;;;;;;;44.67;23.57;;;;;;;1.95;77.87;100883.28;1782972;77;20994;-49
2021/01/10 09:15:22;;;;;;;48.95;24.27;;;;;;;1.96;77.66;100882.84;1782586;77;21022;-48
2021/01/10 09:18:04;;;;;;;49.40;22.52;;;;;;;1.98;77.75;100879.72;1783037;77;22068;-48
2021/01/10 09:20:33;;;;;;;45.38;22.50;;;;;;;2.00;77.21;100879.20;1782016;77;21689;-48
2021/01/10 09:23:09;;;;;;;44.60;23.20;;;;;;;2.02;77.23;100875.61;1784357;78;21185;-49
2021/01/10 09:25:38;;;;;;;42.40;22.75;;;;;;;2.04;77.05;100876.41;1723289;80;21152;-49
2021/01/10 09:28:13;;;;;;;46.02;24.72;;;;;;;2.04;76.78;100879.02;1729506;80;20999;-48
2021/01/10 09:30:55;;;;;;;43.25;23.07;;;;;;;2.08;77.02;100880.20;1724456;80;21639;-49
2021/01/10 09:33:30;;;;;;;41.63;22.45;;;;;;;2.10;76.94;100874.02;1722451;80;21168;-49
2021/01/10 09:36:00;;;;;;;45.40;23.25;;;;;;;2.15;76.84;100874.66;1732807;80;21647;-49
2021/01/10 09:38:31;;;;;;;41.33;21.97;;;;;;;2.20;76.94;100868.80;1742661;80;21648;-49
2021/01/10 09:41:13;;;;;;;40.70;22.20;;;;;;;2.25;76.65;100869.95;1733189;80;21006;-49
2021/01/10 09:43:51;;;;;;;47.60;23.10;;;;;;;2.24;76.14;100872.16;1732524;80;21625;-49
2021/01/10 09:46:33;;;;;;;42.00;22.17;;;;;;;2.24;75.80;100874.77;1740087;80;22358;-49
2021/01/10 09:49:07;;;;;;;36.40;19.15;;;;;;;2.22;75.68;100872.68;1735957;81;21195;-49
2021/01/10 09:52:00;;;;;;;41.98;22.25;;;;;;;2.20;75.45;100872.72;1725690;80;21021;-48
2021/01/10 09:54:38;;;;;;;41.90;22.30;;;;;;;2.17;75.43;100871.54;1734069;80;21046;-49
2021/01/10 09:57:17;;;;;;;39.98;20.68;;;;;;;2.16;75.67;100878.98;1740347;80;20994;-49
2021/01/10 09:59:49;;;;;;;42.73;22.52;;;;;;;2.20;75.52;100879.25;1719142;81;21939;-48
2021/01/10 10:02:28;;;;;;;37.38;19.12;;;;;;;2.23;75.69;100876.12;1719103;80;21476;-49
2021/01/10 10:05:12;;;;;;;37.15;20.52;;;;;;;2.25;75.22;100880.39;1722498;80;21002;-49
2021/01/10 10:07:53;;;;;;;42.67;22.58;;;;;;;2.30;75.04;100881.50;1854458;75;21975;-48
2021/01/10 10:10:30;;;;;;;38.85;20.35;;;;;;;2.25;75.13;100878.22;1795795;78;21499;-48
2021/01/10 10:13:09;;;;;;;37.67;20.05;;;;;;;2.24;75.11;100880.00;1805945;78;22921;-49
2021/01/10 10:15:53;;;;;;;36.75;20.75;;;;;;;2.24;75.03;100872.60;1793409;78;21508;-48
2021/01/10 10:18:19;;;;;;;39.75;21.73;;;;;;;2.23;75.17;100878.30;1792314;77;25128;-48
2021/01/10 10:20:48;;;;;;;34.83;20.30;;;;;;;2.25;75.07;100872.56;1799825;78;21142;-49
2021/01/10 10:23:16;;;;;;;36.77;19.62;;;;;;;2.28;75.23;100869.83;1791866;78;21551;-49
2021/01/10 10:25:50;;;;;;;39.30;20.57;;;;;;;2.27;74.55;100871.17;1801420;78;21370;-49
2021/01/10 10:28:22;;;;;;;35.48;18.67;;;;;;;2.27;74.75;100877.70;1796615;78;22024;-48
2021/01/10 10:30:50;;;;;;;39.18;19.73;;;;;;;2.25;74.29;100874.30;1786344;78;21004;-49
2021/01/10 10:33:19;;;;;;;30.40;17.62;;;;;;;2.26;74.55;100868.17;1781783;78;21976;-49
2021/01/10 10:35:46;;;;;;;34.08;18.12;;;;;;;2.24;74.50;100869.55;1781590;78;20984;-48
2021/01/10 10:38:14;;;;;;;34.88;18.73;;;;;;;2.24;74.42;100875.22;1781656;78;21268;-49
2021/01/10 10:40:42;;;;;;;34.30;18.67;;;;;;;2.23;74.20;100873.08;1781736;78;22097;-49
2021/01/10 10:43:10;;;;;;;36.80;18.92;;;;;;;2.23;74.11;100870.91;1781981;78;21939;-49
2021/01/10 10:45:37;;;;;;;37.08;19.60;;;;;;;2.21;74.15;100874.42;1781871;78;21608;-49
2021/01/10 10:48:06;;;;;;;35.05;17.80;;;;;;;2.21;74.19;100874.42;1782240;78;21902;-49
2021/01/10 10:50:35;;;;;;;34.33;17.80;;;;;;;2.21;74.23;100871.81;1781576;78;21160;-49
2021/01/10 10:53:05;;;;;;;32.98;18.00;;;;;;;2.24;74.47;100874.77;1799023;78;21045;-49
2021/01/10 10:55:34;;;;;;;30.57;16.45;;;;;;;2.29;74.65;100872.83;1813922;78;20981;-49
2021/01/10 10:58:03;;;;;;;32.83;17.70;;;;;;;2.33;74.48;100873.11;1814035;78;21147;-50
2021/01/10 11:00:35;;;;;;;27.87;15.15;;;;;;;2.36;74.31;100865.15;1799164;78;21129;-49
2021/01/10 11:03:04;;;;;;;;;;;;;;;2.40;74.06;100865.02;1784401;78;21040;-49
2021/01/10 11:05:32;;;;;;;25.97;14.28;;;;;;;2.44;73.92;100867.91;1776157;79;20305;-48
2021/01/10 11:08:01;;;;;;;31.87;16.30;;;;;;;2.48;73.89;100862.95;1743143;80;21647;-49
2021/01/10 11:10:28;;;;;;;28.55;15.90;;;;;;;2.52;73.84;100865.84;1764210;79;21151;-48
2021/01/10 11:12:56;;;;;;;30.43;15.80;;;;;;;2.56;73.57;100869.16;1769995;79;21132;-49
2021/01/10 11:15:24;;;;;;;28.40;13.95;;;;;;;2.57;73.28;100862.58;1756086;81;22990;-49
2021/01/10 11:17:52;;;;;;;26.68;13.10;;;;;;;2.57;73.14;100865.19;1734096;81;21013;-49
2021/01/10 11:20:20;;;;;;;26.45;14.10;;;;;;;2.55;72.84;100863.54;1734634;81;21067;-48
2021/01/10 11:22:50;;;;;;;25.08;13.78;;;;;;;2.50;72.93;100868.50;1753361;81;21965;-49
2021/01/10 11:25:18;;;;;;;24.80;12.68;;;;;;;2.48;73.00;100866.41;1734757;81;21151;-49
2021/01/10 11:27:46;;;;;;;25.25;12.82;;;;;;;2.49;72.98;100869.41;1762812;79;23001;-49
2021/01/10 11:30:16;;;;;;;24.18;13.10;;;;;;;2.49;72.83;100872.02;1755373;81;21151;-49
2021/01/10 11:32:44;;;;;;;24.27;13.15;;;;;;;2.46;72.85;100878.67;1748803;81;21001;-49
2021/01/10 11:35:13;;;;;;;22.27;12.58;;;;;;;2.43;72.85;100876.19;1754358;81;21857;-48